createdAt,value
2023-05-02T00:01:12.472Z,8.15
2023-05-02T00:04:14.063Z,8.13
2023-05-02T00:07:15.370Z,8.85
2023-05-02T00:10:16.518Z,8.18
2023-05-02T00:13:17.714Z,8.18
2023-05-02T00:16:19.082Z,9.82
2023-05-02T00:19:19.981Z,9.07
2023-05-02T00:22:20.842Z,9.15
2023-05-02T00:25:21.647Z,9.00
2023-05-02T00:28:22.965Z,9.32
2023-05-02T00:31:24.290Z,8.85
2023-05-02T00:34:31.122Z,10.13
2023-05-02T00:37:32.291Z,9.13
2023-05-02T00:40:46.982Z,9.30
2023-05-02T00:43:48.237Z,9.93
2023-05-02T00:46:49.359Z,8.73
2023-05-02T00:49:51.047Z,8.35
2023-05-02T00:52:51.879Z,8.68
2023-05-02T00:55:54.538Z,7.85
2023-05-02T00:58:55.844Z,8.00
2023-05-02T01:02:48.420Z,8.02
2023-05-02T01:06:35.753Z,8.30
2023-05-02T01:10:02.726Z,7.57
2023-05-02T01:13:21.026Z,7.50
2023-05-02T01:16:24.462Z,7.72
2023-05-02T01:19:41.851Z,7.45
2023-05-02T01:22:43.514Z,7.68
2023-05-02T01:26:10.717Z,7.18
2023-05-02T01:29:15.652Z,7.35
2023-05-02T01:32:20.646Z,7.68
2023-05-02T01:35:25.197Z,7.50
2023-05-02T01:38:28.792Z,7.50
2023-05-02T01:41:32.607Z,7.93
2023-05-02T01:44:36.802Z,7.47
2023-05-02T01:47:40.720Z,9.02
2023-05-02T01:50:45.831Z,7.70
2023-05-02T01:53:50.628Z,8.25
2023-05-02T01:56:52.997Z,7.80
2023-05-02T02:00:01.247Z,7.65
2023-05-02T02:03:09.619Z,8.35
2023-05-02T02:06:12.551Z,8.20
2023-05-02T02:09:14.510Z,8.48
2023-05-02T02:12:26.333Z,8.98
2023-05-02T02:15:35.464Z,9.50
2023-05-02T02:18:39.483Z,9.65
2023-05-02T02:21:46.389Z,8.30
2023-05-02T02:24:48.938Z,9.23
2023-05-02T02:27:51.865Z,9.57
2023-05-02T02:30:53.225Z,10.10
2023-05-02T02:33:54.620Z,10.70
2023-05-02T02:37:17.061Z,10.00
2023-05-02T02:40:30.095Z,10.57
2023-05-02T02:44:33.422Z,10.63
2023-05-02T02:47:53.947Z,10.90
2023-05-02T02:51:24.997Z,10.38
2023-05-02T02:55:11.640Z,10.57
2023-05-02T02:58:30.957Z,11.07
2023-05-02T03:01:36.650Z,11.00
2023-05-02T03:04:44.751Z,12.27
2023-05-02T03:07:46.258Z,12.25
2023-05-02T03:10:47.535Z,11.57
2023-05-02T03:13:49.753Z,9.98
2023-05-02T03:16:56.044Z,10.00
2023-05-02T03:19:57.903Z,10.48
2023-05-02T03:22:59.543Z,9.75
2023-05-02T03:26:01.588Z,9.55
2023-05-02T03:29:02.601Z,9.18
2023-05-02T03:32:09.640Z,9.07
2023-05-02T03:35:12.534Z,8.48
2023-05-02T03:38:18.118Z,9.10
2023-05-02T03:41:23.167Z,9.75
2023-05-02T03:44:29.989Z,8.65
2023-05-02T03:47:31.406Z,7.80
2023-05-02T03:50:32.804Z,8.27
2023-05-02T03:53:34.634Z,8.10
2023-05-02T03:56:36.998Z,6.90
2023-05-02T03:59:49.918Z,7.75
2023-05-02T04:03:02.359Z,8.20
2023-05-02T04:06:05.071Z,7.57
2023-05-02T04:09:06.431Z,9.23
2023-05-02T04:12:16.365Z,10.80
2023-05-02T04:15:21.279Z,9.02
2023-05-02T04:18:24.863Z,9.82
2023-05-02T04:21:27.870Z,10.15
2023-05-02T04:24:29.373Z,10.48
2023-05-02T04:27:32.309Z,12.60
2023-05-02T04:30:34.550Z,14.93
2023-05-02T04:33:41.334Z,16.05
2023-05-02T04:36:42.660Z,18.23
2023-05-02T04:39:47.508Z,20.10
2023-05-02T04:42:54.550Z,23.25
2023-05-02T04:45:59.108Z,20.33
2023-05-02T04:49:04.983Z,19.40
2023-05-02T04:52:06.663Z,20.73
2023-05-02T04:55:09.071Z,21.38
2023-05-02T04:58:11.407Z,19.75
2023-05-02T05:01:13.505Z,21.13
2023-05-02T05:04:14.909Z,18.50
2023-05-02T05:07:16.019Z,19.77
2023-05-02T05:10:20.237Z,20.10
2023-05-02T05:13:21.335Z,17.73
2023-05-02T05:16:24.233Z,18.92
2023-05-02T05:19:26.512Z,17.40
2023-05-02T05:22:27.539Z,17.95
2023-05-02T05:25:28.501Z,17.85
2023-05-02T05:28:30.607Z,17.50
2023-05-02T05:31:32.036Z,17.25
2023-05-02T05:34:34.567Z,17.33
2023-05-02T05:37:37.707Z,16.90
2023-05-02T05:40:40.216Z,17.58
2023-05-02T05:43:43.428Z,16.85
2023-05-02T05:46:44.644Z,16.65
2023-05-02T05:49:47.704Z,17.52
2023-05-02T05:52:50.057Z,16.75
2023-05-02T05:55:51.427Z,16.98
2023-05-02T05:58:55.032Z,14.68
2023-05-02T06:01:56.128Z,14.95
2023-05-02T06:04:57.959Z,14.88
2023-05-02T06:08:00.634Z,14.68
2023-05-02T06:11:01.812Z,14.32
2023-05-02T06:14:02.624Z,8.98
2023-05-02T06:17:04.193Z,8.60
2023-05-02T06:20:05.692Z,10.50
2023-05-02T06:23:06.864Z,10.38
2023-05-02T06:26:08.385Z,12.93
2023-05-02T06:29:09.276Z,11.38
2023-05-02T06:32:10.330Z,10.35
2023-05-02T06:35:12.416Z,10.75
2023-05-02T06:38:13.498Z,8.68
2023-05-02T06:41:18.437Z,9.15
2023-05-02T06:44:19.442Z,8.40
2023-05-02T06:47:20.521Z,8.93
2023-05-02T06:50:22.148Z,8.25
2023-05-02T06:53:23.381Z,7.57
2023-05-02T06:56:26.391Z,7.30
2023-05-02T06:59:27.799Z,7.38
2023-05-02T07:02:28.873Z,8.07
2023-05-02T07:05:31.361Z,7.38
2023-05-02T07:08:32.339Z,7.82
2023-05-02T07:11:33.356Z,8.57
2023-05-02T07:14:34.263Z,8.82
2023-05-02T07:17:35.184Z,9.43
2023-05-02T07:20:36.471Z,8.43
2023-05-02T07:23:37.219Z,8.02
2023-05-02T07:26:38.216Z,7.45
2023-05-02T07:29:39.720Z,8.18
2023-05-02T07:32:40.765Z,6.85
2023-05-02T07:35:41.839Z,6.90
2023-05-02T07:38:42.835Z,6.68
2023-05-02T07:41:44.064Z,6.32
2023-05-02T07:44:44.865Z,5.43
2023-05-02T07:47:47.199Z,6.43
2023-05-02T07:50:48.504Z,6.75
2023-05-02T07:53:58.738Z,6.60
2023-05-02T07:57:03.140Z,6.05
2023-05-02T08:00:08.174Z,6.95
2023-05-02T08:03:14.053Z,7.38
2023-05-02T08:06:15.459Z,5.82
2023-05-02T08:09:16.797Z,7.32
2023-05-02T08:12:17.576Z,7.93
2023-05-02T08:15:18.524Z,6.88
2023-05-02T08:18:19.224Z,7.57
2023-05-02T08:21:20.153Z,7.90
2023-05-02T08:24:21.709Z,7.97
2023-05-02T08:27:22.490Z,7.78
2023-05-02T08:30:23.610Z,7.97
2023-05-02T08:33:24.635Z,8.48
2023-05-02T08:36:26.409Z,8.60
2023-05-02T08:39:27.379Z,9.23
2023-05-02T08:42:33.239Z,9.70
2023-05-02T08:45:44.325Z,9.00
2023-05-02T08:48:48.603Z,9.02
2023-05-02T08:51:51.973Z,10.60
2023-05-02T08:54:55.118Z,9.73
2023-05-02T08:57:58.410Z,9.82
2023-05-02T09:01:10.787Z,10.18
2023-05-02T09:04:12.416Z,10.43
2023-05-02T09:07:13.501Z,10.00
2023-05-02T09:10:15.564Z,11.20
2023-05-02T09:13:37.094Z,10.93
2023-05-02T09:16:40.690Z,11.10
2023-05-02T09:19:42.174Z,10.70
2023-05-02T09:22:52.016Z,10.73
2023-05-02T09:25:53.109Z,11.27
2023-05-02T09:28:57.946Z,11.88
2023-05-02T09:31:59.101Z,10.50
2023-05-02T09:35:07.481Z,10.98
2023-05-02T09:38:23.196Z,10.68
2023-05-02T09:41:24.358Z,10.05
2023-05-02T09:44:36.315Z,11.30
2023-05-02T09:47:37.060Z,8.75
2023-05-02T09:50:39.167Z,9.07
2023-05-02T09:53:47.722Z,8.88
2023-05-02T09:56:56.933Z,9.23
2023-05-02T09:59:59.043Z,9.15
2023-05-02T10:03:00.444Z,9.93
2023-05-02T10:06:02.502Z,9.15
2023-05-02T10:09:04.077Z,9.57
2023-05-02T10:12:05.392Z,8.45
2023-05-02T10:15:10.698Z,9.13
2023-05-02T10:18:26.961Z,9.38
2023-05-02T10:21:28.315Z,10.32
2023-05-02T10:24:33.018Z,9.48
2023-05-02T10:27:34.196Z,9.20
2023-05-02T10:30:36.394Z,9.25
2023-05-02T10:33:39.137Z,9.30
2023-05-02T10:36:40.897Z,8.27
2023-05-02T10:39:42.103Z,9.07
2023-05-02T10:42:47.995Z,9.05
2023-05-02T10:45:54.217Z,8.90
2023-05-02T10:49:06.583Z,7.93
2023-05-02T10:52:35.433Z,8.50
2023-05-02T10:55:36.462Z,8.82
2023-05-02T10:58:37.703Z,9.05
2023-05-02T11:01:40.127Z,8.10
2023-05-02T11:05:05.154Z,8.55
2023-05-02T11:08:23.250Z,8.50
2023-05-02T11:11:42.792Z,8.60
2023-05-02T11:14:47.670Z,8.77
2023-05-02T11:18:07.871Z,8.27
2023-05-02T11:21:30.040Z,8.50
2023-05-02T11:24:47.777Z,8.35
2023-05-02T11:30:51.255Z,9.00
2023-05-02T11:34:00.855Z,7.93
2023-05-02T11:37:11.519Z,7.82
2023-05-02T11:40:14.543Z,8.50
2023-05-02T11:43:18.997Z,7.15
2023-05-02T11:46:21.370Z,7.72
2023-05-02T11:49:22.538Z,6.63
2023-05-02T11:52:24.907Z,7.20
2023-05-02T11:55:26.025Z,7.75
2023-05-02T11:58:32.739Z,7.10
2023-05-02T12:01:34.196Z,7.88
2023-05-02T12:04:44.847Z,7.00
2023-05-02T12:07:49.503Z,6.85
2023-05-02T12:10:54.935Z,6.90
2023-05-02T12:13:55.697Z,5.72
2023-05-02T12:16:58.818Z,6.47
2023-05-02T12:20:03.160Z,5.82
2023-05-02T12:23:07.268Z,6.95
2023-05-02T12:26:29.591Z,6.97
2023-05-02T12:29:46.966Z,5.10
2023-05-02T12:33:03.853Z,5.22
2023-05-02T12:36:10.170Z,5.60
2023-05-02T12:39:12.245Z,4.50
2023-05-02T12:42:21.831Z,4.45
2023-05-02T12:45:23.027Z,5.03
2023-05-02T12:48:28.354Z,4.75
2023-05-02T12:51:31.712Z,4.25
2023-05-02T12:54:32.738Z,5.43
2023-05-02T12:57:34.153Z,5.88
2023-05-02T13:00:44.883Z,5.82
2023-05-02T13:03:46.984Z,5.45
2023-05-02T13:06:48.399Z,6.05
2023-05-02T13:09:49.290Z,5.10
2023-05-02T13:12:50.325Z,5.38
2023-05-02T13:15:51.375Z,6.60
2023-05-02T13:18:52.561Z,6.30
2023-05-02T13:21:53.496Z,4.70
2023-05-02T13:24:55.293Z,5.20
2023-05-02T13:27:56.512Z,5.55
2023-05-02T13:30:57.399Z,5.03
2023-05-02T13:33:58.314Z,4.57
2023-05-02T13:36:59.142Z,4.93
2023-05-02T13:40:00.368Z,4.15
2023-05-02T13:43:01.786Z,4.75
2023-05-02T13:46:03.030Z,4.32
2023-05-02T13:49:04.629Z,4.43
2023-05-02T13:52:05.808Z,4.00
2023-05-02T13:55:07.524Z,4.90
2023-05-02T13:58:08.751Z,4.05
2023-05-02T14:01:10.001Z,4.35
2023-05-02T14:04:11.574Z,3.88
2023-05-02T14:07:12.754Z,4.40
2023-05-02T14:10:13.880Z,4.30
2023-05-02T14:13:14.696Z,5.05
2023-05-02T14:16:15.728Z,4.80
2023-05-02T14:19:16.936Z,4.57
2023-05-02T14:22:17.768Z,6.75
2023-05-02T14:25:20.711Z,5.05
2023-05-02T14:28:22.396Z,5.20
2023-05-02T14:31:23.376Z,4.68
2023-05-02T14:34:27.089Z,5.00
2023-05-02T14:37:28.112Z,4.72
2023-05-02T14:40:29.461Z,4.25
2023-05-02T14:43:30.674Z,4.05
2023-05-02T14:46:31.453Z,3.00
2023-05-02T14:49:32.384Z,3.35
2023-05-02T14:52:33.685Z,4.00
2023-05-02T14:55:39.067Z,2.83
2023-05-02T14:58:40.220Z,3.33
2023-05-02T15:01:41.014Z,2.50
2023-05-02T15:04:42.353Z,2.80
2023-05-02T15:07:43.686Z,3.30
2023-05-02T15:10:44.540Z,2.90
2023-05-02T15:13:45.539Z,3.50
2023-05-02T15:16:46.560Z,3.38
2023-05-02T15:19:47.616Z,3.25
2023-05-02T15:22:49.673Z,3.45
2023-05-02T15:25:50.947Z,3.60
2023-05-02T15:28:52.022Z,4.13
2023-05-02T15:31:54.838Z,3.42
2023-05-02T15:34:55.940Z,4.32
2023-05-02T15:37:57.143Z,4.30
2023-05-02T15:41:00.575Z,3.85
2023-05-02T15:44:02.031Z,4.18
2023-05-02T15:47:04.380Z,4.22
2023-05-02T15:50:06.738Z,3.90
2023-05-02T15:53:07.974Z,4.28
2023-05-02T15:56:10.687Z,4.82
2023-05-02T15:59:11.782Z,3.47
2023-05-02T16:02:12.834Z,2.75
2023-05-02T16:05:13.872Z,3.25
2023-05-02T16:08:14.645Z,3.60
2023-05-02T16:11:15.738Z,3.28
2023-05-02T16:14:16.669Z,3.00
2023-05-02T16:17:17.707Z,2.47
2023-05-02T16:20:19.249Z,4.00
2023-05-02T16:23:22.373Z,2.85
2023-05-02T16:26:23.369Z,2.70
2023-05-02T16:29:24.264Z,3.70
2023-05-02T16:32:25.936Z,2.80
2023-05-02T16:35:27.296Z,3.20
2023-05-02T16:38:28.160Z,3.55
2023-05-02T16:41:29.616Z,3.25
2023-05-02T16:44:30.788Z,3.40
2023-05-02T16:47:31.763Z,4.03
2023-05-02T16:50:32.750Z,3.28
2023-05-02T16:53:33.568Z,2.97
2023-05-02T16:56:34.881Z,3.13
2023-05-02T16:59:35.720Z,3.78
2023-05-02T17:02:36.697Z,4.78
2023-05-02T17:05:37.934Z,4.50
2023-05-02T17:08:39.568Z,4.30
2023-05-02T17:11:41.384Z,4.07
2023-05-02T17:14:43.015Z,3.97
2023-05-02T17:17:44.531Z,3.63
2023-05-02T17:20:47.000Z,3.53
2023-05-02T17:23:48.090Z,4.25
2023-05-02T17:26:51.345Z,4.13
2023-05-02T17:29:52.284Z,4.63
2023-05-02T17:32:53.289Z,4.93
2023-05-02T17:35:54.560Z,4.32
2023-05-02T17:38:55.885Z,5.22
2023-05-02T17:41:57.229Z,4.82
2023-05-02T17:44:58.554Z,5.47
2023-05-02T17:48:00.025Z,6.13
2023-05-02T17:51:04.304Z,5.95
2023-05-02T17:54:05.094Z,5.70
2023-05-02T17:57:06.335Z,5.35
2023-05-02T18:00:08.411Z,4.80
2023-05-02T18:03:09.642Z,4.82
2023-05-02T18:06:18.962Z,3.85
2023-05-02T18:09:20.239Z,4.40
2023-05-02T18:12:21.215Z,3.97
2023-05-02T18:15:22.266Z,6.93
2023-05-02T18:18:23.502Z,6.95
2023-05-02T18:21:25.908Z,6.43
2023-05-02T18:24:27.474Z,7.28
2023-05-02T18:27:28.928Z,7.90
2023-05-02T18:30:29.810Z,6.30
2023-05-02T18:33:31.303Z,4.72
2023-05-02T18:36:32.649Z,4.72
2023-05-02T18:39:34.512Z,3.50
2023-05-02T18:42:35.737Z,3.45
2023-05-02T18:45:36.759Z,2.92
2023-05-02T18:48:38.220Z,2.90
2023-05-02T18:51:39.308Z,3.35
2023-05-02T18:54:40.188Z,3.05
2023-05-02T18:57:44.721Z,3.70
2023-05-02T19:00:45.842Z,4.32
2023-05-02T19:03:46.549Z,4.35
2023-05-02T19:06:48.183Z,4.93
2023-05-02T19:09:49.079Z,5.55
2023-05-02T19:12:50.091Z,5.65
2023-05-02T19:15:50.885Z,5.80
2023-05-02T19:18:53.669Z,5.78
2023-05-02T19:21:54.765Z,5.68
2023-05-02T19:24:55.684Z,5.93
2023-05-02T19:27:56.541Z,5.70
2023-05-02T19:30:57.742Z,6.22
2023-05-02T19:33:59.072Z,6.95
2023-05-02T19:36:59.894Z,7.43
2023-05-02T19:40:01.091Z,8.02
2023-05-02T19:43:02.275Z,7.03
2023-05-02T19:46:03.398Z,7.45
2023-05-02T19:49:04.112Z,7.30
2023-05-02T19:52:05.313Z,6.88
2023-05-02T19:55:07.563Z,6.95
2023-05-02T19:58:08.661Z,7.00
2023-05-02T20:01:09.367Z,7.10
2023-05-02T20:04:10.241Z,7.53
2023-05-02T20:07:11.157Z,7.35
2023-05-02T20:10:12.125Z,6.25
2023-05-02T20:13:13.300Z,6.60
2023-05-02T20:16:14.718Z,7.15
2023-05-02T20:19:19.983Z,7.63
2023-05-02T20:22:22.833Z,7.17
2023-05-02T20:25:24.369Z,7.25
2023-05-02T20:28:26.061Z,6.18
2023-05-02T20:31:27.378Z,6.75
2023-05-02T20:34:28.622Z,7.38
2023-05-02T20:37:30.278Z,6.93
2023-05-02T20:40:32.507Z,7.53
2023-05-02T20:43:36.414Z,7.15
2023-05-02T20:46:38.184Z,8.10
2023-05-02T20:49:39.474Z,7.43
2023-05-02T20:52:40.701Z,7.78
2023-05-02T20:55:41.838Z,7.45
2023-05-02T20:58:43.316Z,7.32
2023-05-02T21:01:44.188Z,7.43
2023-05-02T21:04:45.245Z,8.93
2023-05-02T21:07:46.692Z,9.45
2023-05-02T21:10:48.078Z,9.10
2023-05-02T21:13:49.119Z,10.27
2023-05-02T21:16:50.192Z,9.35
2023-05-02T21:19:55.283Z,9.90
2023-05-02T21:22:56.704Z,9.88
2023-05-02T21:25:57.794Z,8.57
2023-05-02T21:28:59.189Z,10.07
2023-05-02T21:32:00.433Z,9.60
2023-05-02T21:35:02.169Z,10.60
2023-05-02T21:38:03.302Z,10.75
2023-05-02T21:41:06.125Z,10.50
2023-05-02T21:44:11.060Z,11.52
2023-05-02T21:47:12.459Z,11.02
2023-05-02T21:50:13.608Z,11.48
2023-05-02T21:53:14.984Z,12.45
2023-05-02T21:56:16.185Z,15.00
2023-05-02T21:59:17.461Z,15.27
2023-05-02T22:02:18.491Z,18.48
2023-05-02T22:05:19.566Z,13.38
2023-05-02T22:08:20.814Z,12.70
2023-05-02T22:11:21.995Z,14.48
2023-05-02T22:14:33.812Z,14.60
2023-05-02T22:17:43.498Z,13.45
2023-05-02T22:20:45.970Z,13.82
2023-05-02T22:23:46.928Z,15.02
2023-05-02T22:26:50.790Z,14.60
2023-05-02T22:29:51.777Z,13.73
2023-05-02T22:32:53.009Z,14.52
2023-05-02T22:35:54.018Z,13.90
2023-05-02T22:38:54.894Z,15.30
2023-05-02T22:41:55.960Z,15.52
2023-05-02T22:44:57.091Z,16.40
2023-05-02T22:47:58.381Z,16.20
2023-05-02T22:50:59.878Z,15.23
2023-05-02T22:54:00.723Z,16.77
2023-05-02T22:57:02.023Z,16.33
2023-05-02T23:00:05.744Z,14.60
2023-05-02T23:03:07.115Z,13.85
2023-05-02T23:06:08.498Z,22.23
2023-05-02T23:09:09.449Z,19.73
2023-05-02T23:12:10.422Z,24.27
2023-05-02T23:15:11.806Z,36.72
2023-05-02T23:18:13.237Z,31.27
2023-05-02T23:21:15.982Z,24.23
2023-05-02T23:24:17.131Z,18.30
2023-05-02T23:27:18.273Z,18.13
2023-05-02T23:30:19.396Z,20.10
2023-05-02T23:33:20.759Z,20.50
2023-05-02T23:36:22.136Z,17.80
2023-05-02T23:39:23.988Z,20.58
2023-05-02T23:42:25.256Z,17.88
2023-05-02T23:45:27.280Z,15.50
2023-05-02T23:48:28.105Z,15.15
2023-05-02T23:51:29.093Z,17.13
2023-05-02T23:54:32.036Z,19.25
2023-05-02T23:57:34.867Z,19.55
